createdAt,value
2017-02-20T00:00:26.522Z,15.64
2017-02-20T00:01:35.899Z,15.62
2017-02-20T00:02:45.675Z,15.64
2017-02-20T00:03:55.438Z,15.59
2017-02-20T00:05:05.202Z,15.64
2017-02-20T00:06:14.545Z,15.62
2017-02-20T00:07:24.373Z,15.5
2017-02-20T00:08:34.125Z,15.6
2017-02-20T00:09:43.463Z,15.56
2017-02-20T00:10:53.228Z,15.5
2017-02-20T00:12:02.992Z,15.54
2017-02-20T00:13:13.670Z,15.53
2017-02-20T00:14:23.877Z,15.5
2017-02-20T00:15:33.200Z,15.49
2017-02-20T00:16:43.426Z,15.57
2017-02-20T00:17:52.742Z,15.5
2017-02-20T00:19:02.981Z,15.51
2017-02-20T00:20:13.161Z,15.41
2017-02-20T00:21:22.921Z,15.53
2017-02-20T00:22:33.120Z,15.53
2017-02-20T00:23:43.332Z,15.39
2017-02-20T00:24:53.586Z,15.46
2017-02-20T00:26:03.347Z,15.44
2017-02-20T00:27:12.659Z,15.43
2017-02-20T00:28:23.297Z,15.43
2017-02-20T00:29:33.494Z,15.49
2017-02-20T00:30:43.303Z,15.49
2017-02-20T00:31:53.500Z,15.39
2017-02-20T00:33:04.137Z,15.44
2017-02-20T00:34:14.320Z,15.38
2017-02-20T00:35:24.543Z,15.44
2017-02-20T00:36:34.786Z,15.44
2017-02-20T00:37:44.085Z,15.43
2017-02-20T00:38:54.295Z,15.43
2017-02-20T00:40:04.521Z,15.44
2017-02-20T00:41:14.281Z,15.43
2017-02-20T00:42:24.724Z,15.41
2017-02-20T00:43:34.948Z,15.35
2017-02-20T00:44:44.718Z,15.39
2017-02-20T00:45:54.047Z,15.35
2017-02-20T00:47:04.255Z,15.49
2017-02-20T00:48:14.498Z,15.41
2017-02-20T00:49:24.251Z,15.41
2017-02-20T00:50:33.556Z,15.28
2017-02-20T00:51:43.757Z,15.41
2017-02-20T00:52:53.094Z,15.34
2017-02-20T00:54:03.327Z,15.29
2017-02-20T00:55:12.672Z,15.29
2017-02-20T00:56:21.982Z,15.38
2017-02-20T00:57:31.315Z,15.31
2017-02-20T00:58:41.080Z,15.27
2017-02-20T00:59:50.910Z,15.27
2017-02-20T01:01:00.259Z,15.25
2017-02-20T01:02:10.047Z,15.31
2017-02-20T01:03:20.248Z,15.36
2017-02-20T01:04:30.909Z,15.32
2017-02-20T01:05:40.715Z,15.34
2017-02-20T01:06:50.040Z,15.34
2017-02-20T01:07:59.818Z,15.28
2017-02-20T01:09:10.015Z,15.29
2017-02-20T01:10:19.338Z,15.34
2017-02-20T01:11:29.581Z,15.32
2017-02-20T01:12:38.894Z,15.25
2017-02-20T01:13:48.216Z,15.27
2017-02-20T01:14:58.429Z,15.32
2017-02-20T01:16:08.181Z,15.31
2017-02-20T01:17:17.571Z,15.28
2017-02-20T01:18:26.900Z,15.28
2017-02-20T01:19:36.207Z,15.27
2017-02-20T01:20:46.854Z,15.28
2017-02-20T01:21:57.494Z,15.23
2017-02-20T01:23:07.768Z,15.21
2017-02-20T01:24:17.958Z,15.25
2017-02-20T01:25:27.713Z,15.17
2017-02-20T01:26:38.340Z,15.19
2017-02-20T01:27:48.536Z,15.27
2017-02-20T01:28:58.785Z,15.31
2017-02-20T01:30:09.402Z,15.19
2017-02-20T01:31:19.609Z,15.19
2017-02-20T01:32:29.409Z,15.28
2017-02-20T01:33:39.625Z,15.23
2017-02-20T01:34:50.454Z,15.19
2017-02-20T01:35:59.774Z,15.16
2017-02-20T01:37:09.970Z,15.16
2017-02-20T01:38:20.200Z,15.13
2017-02-20T01:39:29.973Z,15.13
2017-02-20T01:40:40.242Z,15.23
2017-02-20T01:41:50.003Z,15.13
2017-02-20T01:43:00.188Z,15.14
2017-02-20T01:44:09.523Z,15.2
2017-02-20T01:45:19.271Z,15.16
2017-02-20T01:46:28.816Z,15.17
2017-02-20T01:47:38.145Z,15.16
2017-02-20T01:48:47.922Z,15.17
2017-02-20T01:49:57.716Z,15.27
2017-02-20T01:51:07.919Z,15.19
2017-02-20T01:52:18.210Z,15.16
2017-02-20T01:53:28.407Z,15.29
2017-02-20T01:54:37.728Z,15.17
2017-02-20T01:55:47.497Z,15.23
2017-02-20T01:56:57.682Z,15.23
2017-02-20T01:58:07.040Z,15.19
2017-02-20T01:59:16.351Z,15.16
2017-02-20T02:00:25.673Z,15.17
2017-02-20T02:01:35.419Z,15.2
2017-02-20T02:02:45.628Z,15.16
2017-02-20T02:03:55.417Z,15.16
2017-02-20T02:05:06.049Z,15.19
2017-02-20T02:06:16.699Z,15.13
2017-02-20T02:07:26.479Z,15.21
2017-02-20T02:08:36.669Z,15.21
2017-02-20T02:09:46.935Z,15.07
2017-02-20T02:10:57.132Z,15.13
2017-02-20T02:12:07.765Z,15.07
2017-02-20T02:13:17.966Z,15.11
2017-02-20T02:14:27.288Z,15.16
2017-02-20T02:15:36.669Z,15.19
2017-02-20T02:16:46.422Z,15.19
2017-02-20T02:17:56.204Z,15.19
2017-02-20T02:19:05.964Z,15.16
2017-02-20T02:20:15.306Z,15.13
2017-02-20T02:21:25.151Z,15.13
2017-02-20T02:22:35.352Z,15.2
2017-02-20T02:23:45.108Z,15.2
2017-02-20T02:24:56.611Z,15.11
2017-02-20T02:26:06.388Z,15.16
2017-02-20T02:27:16.797Z,15.13
2017-02-20T02:28:26.141Z,15.11
2017-02-20T02:29:36.804Z,15.11
2017-02-20T02:30:47.021Z,15.16
2017-02-20T02:31:56.374Z,15.16
2017-02-20T02:33:05.759Z,15.1
2017-02-20T02:34:15.098Z,15.19
2017-02-20T02:35:24.884Z,15.09
2017-02-20T02:36:34.635Z,15.13
2017-02-20T02:37:44.404Z,15.09
2017-02-20T02:38:54.235Z,15.14
2017-02-20T02:40:03.568Z,15.06
2017-02-20T02:41:12.899Z,15.11
2017-02-20T02:42:22.648Z,15.07
2017-02-20T02:43:31.973Z,15.03
2017-02-20T02:44:41.775Z,15.09
2017-02-20T02:45:52.014Z,15.09
2017-02-20T02:47:01.793Z,15.09
2017-02-20T02:48:11.591Z,15.03
2017-02-20T02:49:21.350Z,15.07
2017-02-20T02:50:31.616Z,15.1
2017-02-20T02:51:41.386Z,15.07
2017-02-20T02:52:51.155Z,15.07
2017-02-20T02:54:00.939Z,15.03
2017-02-20T02:55:10.729Z,15.11
2017-02-20T02:56:20.527Z,14.99
2017-02-20T02:57:30.292Z,15.07
2017-02-20T02:58:40.489Z,15.02
2017-02-20T02:59:50.266Z,15.1
2017-02-20T03:01:00.480Z,15.03
2017-02-20T03:02:10.316Z,15.1
2017-02-20T03:03:20.082Z,15.11
2017-02-20T03:04:29.411Z,15.09
2017-02-20T03:05:39.175Z,14.99
2017-02-20T03:06:48.937Z,15.01
2017-02-20T03:07:58.767Z,15.07
2017-02-20T03:09:08.532Z,15.01
2017-02-20T03:10:18.749Z,15.07
2017-02-20T03:11:28.494Z,15.01
2017-02-20T03:12:38.267Z,15.02
2017-02-20T03:13:48.076Z,14.99
2017-02-20T03:14:57.841Z,14.99
2017-02-20T03:16:07.614Z,14.98
2017-02-20T03:17:17.392Z,14.96
2017-02-20T03:18:27.615Z,14.96
2017-02-20T03:19:37.866Z,14.95
2017-02-20T03:20:47.627Z,14.95
2017-02-20T03:21:57.401Z,14.95
2017-02-20T03:23:07.170Z,14.99
2017-02-20T03:24:17.386Z,15.02
2017-02-20T03:25:27.230Z,15.01
2017-02-20T03:26:37.005Z,14.94
2017-02-20T03:27:47.205Z,14.91
2017-02-20T03:28:57.412Z,14.94
2017-02-20T03:30:07.213Z,14.96
2017-02-20T03:31:17.041Z,14.96
2017-02-20T03:32:26.359Z,15.01
2017-02-20T03:33:36.120Z,14.92
2017-02-20T03:34:46.777Z,14.91
2017-02-20T03:35:57.017Z,15.01
2017-02-20T03:37:07.284Z,14.98
2017-02-20T03:38:17.520Z,15.01
2017-02-20T03:39:27.287Z,14.92
2017-02-20T03:40:37.055Z,14.99
2017-02-20T03:41:47.265Z,14.92
2017-02-20T03:42:57.546Z,14.98
2017-02-20T03:44:07.299Z,14.94
2017-02-20T03:45:17.956Z,14.96
2017-02-20T03:46:27.748Z,14.96
2017-02-20T03:47:37.946Z,14.89
2017-02-20T03:48:47.811Z,14.96
2017-02-20T03:49:57.585Z,14.96
2017-02-20T03:51:07.354Z,14.95
2017-02-20T03:52:17.127Z,14.94
2017-02-20T03:53:26.896Z,14.92
2017-02-20T03:54:36.725Z,14.95
2017-02-20T03:55:46.491Z,14.94
2017-02-20T03:56:56.248Z,14.95
2017-02-20T03:58:06.001Z,14.98
2017-02-20T03:59:16.197Z,14.94
2017-02-20T04:00:26.436Z,14.91
2017-02-20T04:01:36.201Z,14.91
2017-02-20T04:02:45.522Z,14.94
2017-02-20T04:03:56.176Z,14.94
2017-02-20T04:05:05.952Z,14.95
2017-02-20T04:06:15.337Z,14.89
2017-02-20T04:07:25.561Z,14.95
2017-02-20T04:08:35.772Z,14.89
2017-02-20T04:09:45.541Z,14.94
2017-02-20T04:10:55.303Z,14.94
2017-02-20T04:12:04.775Z,14.84
2017-02-20T04:13:14.543Z,14.83
2017-02-20T04:14:24.762Z,14.91
2017-02-20T04:15:34.951Z,14.95
2017-02-20T04:16:44.696Z,14.86
2017-02-20T04:17:54.506Z,14.86
2017-02-20T04:19:04.254Z,14.84
2017-02-20T04:20:14.008Z,14.91
2017-02-20T04:21:23.352Z,14.89
2017-02-20T04:22:33.102Z,14.91
2017-02-20T04:23:42.907Z,14.89
2017-02-20T04:24:52.673Z,14.94
2017-02-20T04:26:02.902Z,14.84
2017-02-20T04:27:12.667Z,14.84
2017-02-20T04:28:22.000Z,14.91
2017-02-20T04:29:31.826Z,14.88
2017-02-20T04:30:41.610Z,14.88
2017-02-20T04:31:51.368Z,14.88
2017-02-20T04:33:02.021Z,14.89
2017-02-20T04:34:11.802Z,14.78
2017-02-20T04:35:21.623Z,14.83
2017-02-20T04:36:31.407Z,14.8
2017-02-20T04:37:41.598Z,14.83
2017-02-20T04:38:50.915Z,14.73
2017-02-20T04:40:00.672Z,14.89
2017-02-20T04:41:10.944Z,14.89
2017-02-20T04:42:20.267Z,14.73
2017-02-20T04:43:30.488Z,14.75
2017-02-20T04:44:40.708Z,14.77
2017-02-20T04:45:50.482Z,14.83
2017-02-20T04:47:00.728Z,14.72
2017-02-20T04:48:10.925Z,14.8
2017-02-20T04:49:21.135Z,14.73
2017-02-20T04:50:30.915Z,14.83
2017-02-20T04:51:41.112Z,14.83
2017-02-20T04:52:50.917Z,14.83
2017-02-20T04:54:00.703Z,14.8
2017-02-20T04:55:10.493Z,14.8
2017-02-20T04:56:20.245Z,14.77
2017-02-20T04:57:30.018Z,14.86
2017-02-20T04:58:39.828Z,14.78
2017-02-20T04:59:49.585Z,14.78
2017-02-20T05:00:59.373Z,14.77
2017-02-20T05:02:09.134Z,14.77
2017-02-20T05:03:18.451Z,14.83
2017-02-20T05:04:29.146Z,14.78
2017-02-20T05:05:39.351Z,14.83
2017-02-20T05:06:49.104Z,14.78
2017-02-20T05:07:58.865Z,14.75
2017-02-20T05:09:08.624Z,14.78
2017-02-20T05:10:18.895Z,14.89
2017-02-20T05:11:29.121Z,14.7
2017-02-20T05:12:38.871Z,14.75
2017-02-20T05:13:48.643Z,14.75
2017-02-20T05:14:58.440Z,14.81
2017-02-20T05:16:08.713Z,14.68
2017-02-20T05:17:18.487Z,14.69
2017-02-20T05:18:28.243Z,14.69
2017-02-20T05:19:37.993Z,14.64
2017-02-20T05:20:47.768Z,14.69
2017-02-20T05:21:58.484Z,14.75
2017-02-20T05:23:07.796Z,14.77
2017-02-20T05:24:17.134Z,14.77
2017-02-20T05:25:26.458Z,14.73
2017-02-20T05:26:36.665Z,14.78
2017-02-20T05:27:46.476Z,14.77
2017-02-20T05:28:57.126Z,14.77
2017-02-20T05:30:06.908Z,14.83
2017-02-20T05:31:17.113Z,14.8
2017-02-20T05:32:26.902Z,14.69
2017-02-20T05:33:36.719Z,14.75
2017-02-20T05:34:47.360Z,14.8
2017-02-20T05:35:57.107Z,14.75
2017-02-20T05:37:06.867Z,14.72
2017-02-20T05:38:17.120Z,14.73
2017-02-20T05:39:26.931Z,14.77
2017-02-20T05:40:36.693Z,14.7
2017-02-20T05:41:46.914Z,14.77
2017-02-20T05:42:57.117Z,14.69
2017-02-20T05:44:06.878Z,14.75
2017-02-20T05:45:16.843Z,14.7
2017-02-20T05:46:27.076Z,14.69
2017-02-20T05:47:36.826Z,14.7
2017-02-20T05:48:47.030Z,14.7
2017-02-20T05:49:56.784Z,14.7
2017-02-20T05:51:06.593Z,14.78
2017-02-20T05:52:16.821Z,14.69
2017-02-20T05:53:27.468Z,14.77
2017-02-20T05:54:37.225Z,14.8
2017-02-20T05:55:46.626Z,14.78
2017-02-20T05:56:56.946Z,14.81
2017-02-20T05:58:06.753Z,14.86
2017-02-20T05:59:16.552Z,14.84
2017-02-20T06:00:27.211Z,14.94
2017-02-20T06:01:36.995Z,14.88
2017-02-20T06:02:47.691Z,14.98
2017-02-20T06:03:57.882Z,14.89
2017-02-20T06:05:08.087Z,14.92
2017-02-20T06:06:17.852Z,14.95
2017-02-20T06:07:27.641Z,14.95
2017-02-20T06:08:37.029Z,14.98
2017-02-20T06:09:47.220Z,14.94
2017-02-20T06:10:57.457Z,14.92
2017-02-20T06:12:07.234Z,14.95
2017-02-20T06:13:17.004Z,14.95
2017-02-20T06:14:26.833Z,14.94
2017-02-20T06:15:36.592Z,14.91
2017-02-20T06:16:47.235Z,14.94
2017-02-20T06:17:56.996Z,14.95
2017-02-20T06:19:06.768Z,14.86
2017-02-20T06:20:17.901Z,14.92
2017-02-20T06:21:27.664Z,14.88
2017-02-20T06:22:37.880Z,14.86
2017-02-20T06:23:48.114Z,14.92
2017-02-20T06:24:58.319Z,14.94
2017-02-20T06:26:08.568Z,14.92
2017-02-20T06:27:18.798Z,14.81
2017-02-20T06:28:28.555Z,14.89
2017-02-20T06:29:37.876Z,14.91
2017-02-20T06:30:48.091Z,14.89
2017-02-20T06:31:58.789Z,14.75
2017-02-20T06:33:09.448Z,14.92
2017-02-20T06:34:19.199Z,14.86
2017-02-20T06:35:28.950Z,14.86
2017-02-20T06:36:38.283Z,14.77
2017-02-20T06:37:48.539Z,14.86
2017-02-20T06:38:59.633Z,14.73
2017-02-20T06:40:09.434Z,14.78
2017-02-20T06:41:19.182Z,14.86
2017-02-20T06:42:28.960Z,14.83
2017-02-20T06:43:39.202Z,14.75
2017-02-20T06:44:48.959Z,14.75
2017-02-20T06:45:58.720Z,14.75
2017-02-20T06:47:08.920Z,14.89
2017-02-20T06:48:19.579Z,14.73
2017-02-20T06:49:29.864Z,14.72
2017-02-20T06:50:39.621Z,14.84
2017-02-20T06:51:49.822Z,14.78
2017-02-20T06:53:00.058Z,14.83
2017-02-20T06:54:10.273Z,14.8
2017-02-20T06:55:20.533Z,14.81
2017-02-20T06:56:30.319Z,14.84
2017-02-20T06:57:40.076Z,14.78
2017-02-20T06:58:50.285Z,14.84
2017-02-20T07:00:00.050Z,14.72
2017-02-20T07:01:10.304Z,14.8
2017-02-20T07:02:20.081Z,14.75
2017-02-20T07:03:30.281Z,14.78
2017-02-20T07:04:40.051Z,14.75
2017-02-20T07:05:50.708Z,14.84
2017-02-20T07:07:00.557Z,14.77
2017-02-20T07:08:10.758Z,14.73
2017-02-20T07:09:20.540Z,14.77
2017-02-20T07:10:30.320Z,14.84
2017-02-20T07:11:40.073Z,14.84
2017-02-20T07:12:49.884Z,14.81
2017-02-20T07:13:59.209Z,14.75
2017-02-20T07:15:09.015Z,14.72
2017-02-20T07:16:18.795Z,14.84
2017-02-20T07:17:28.128Z,14.88
2017-02-20T07:18:37.941Z,14.73
2017-02-20T07:19:47.698Z,14.73
2017-02-20T07:20:57.475Z,14.89
2017-02-20T07:22:07.687Z,14.73
2017-02-20T07:23:17.445Z,14.77
2017-02-20T07:24:27.295Z,14.78
2017-02-20T07:25:37.090Z,14.88
2017-02-20T07:26:47.293Z,14.91
2017-02-20T07:27:57.057Z,14.86
2017-02-20T07:29:06.842Z,14.89
2017-02-20T07:30:16.641Z,14.86
2017-02-20T07:31:26.418Z,14.89
2017-02-20T07:32:36.623Z,14.89
2017-02-20T07:33:46.835Z,14.94
2017-02-20T07:34:57.061Z,14.89
2017-02-20T07:36:07.374Z,14.94
2017-02-20T07:37:17.143Z,14.91
2017-02-20T07:38:26.936Z,14.94
2017-02-20T07:39:36.694Z,14.99
2017-02-20T07:40:46.019Z,14.99
2017-02-20T07:41:56.260Z,14.91
2017-02-20T07:43:06.017Z,14.96
2017-02-20T07:44:16.226Z,15.01
2017-02-20T07:45:25.991Z,14.95
2017-02-20T07:46:36.624Z,15.07
2017-02-20T07:47:46.010Z,15.13
2017-02-20T07:48:55.331Z,15.1
2017-02-20T07:50:04.664Z,15.07
2017-02-20T07:51:14.433Z,15.11
2017-02-20T07:52:24.187Z,15.17
2017-02-20T07:53:34.004Z,15.16
2017-02-20T07:54:43.757Z,15.16
2017-02-20T07:55:53.526Z,15.16
2017-02-20T07:57:03.290Z,15.17
2017-02-20T07:58:13.500Z,15.13
2017-02-20T07:59:23.765Z,15.14
2017-02-20T08:00:33.090Z,15.23
2017-02-20T08:01:42.868Z,15.16
2017-02-20T08:02:52.621Z,15.13
2017-02-20T08:04:02.819Z,15.17
2017-02-20T08:05:12.662Z,15.2
2017-02-20T08:06:22.888Z,15.25
2017-02-20T08:07:32.217Z,15.21
2017-02-20T08:08:42.011Z,15.31
2017-02-20T08:09:51.382Z,15.31
2017-02-20T08:11:01.759Z,15.27
2017-02-20T08:12:11.545Z,15.41
2017-02-20T08:13:21.760Z,15.27
2017-02-20T08:14:31.961Z,15.41
2017-02-20T08:15:41.730Z,15.36
2017-02-20T08:16:51.119Z,15.46
2017-02-20T08:18:00.452Z,15.44
2017-02-20T08:19:10.677Z,15.47
2017-02-20T08:20:20.867Z,15.44
2017-02-20T08:21:31.528Z,15.47
2017-02-20T08:22:40.901Z,15.38
2017-02-20T08:23:51.101Z,15.46
2017-02-20T08:25:01.307Z,15.43
2017-02-20T08:26:10.637Z,15.46
2017-02-20T08:27:20.422Z,15.46
2017-02-20T08:28:30.679Z,15.41
2017-02-20T08:29:40.892Z,15.43
2017-02-20T08:30:50.669Z,15.41
2017-02-20T08:32:00.899Z,15.46
2017-02-20T08:33:10.656Z,15.46
2017-02-20T08:34:20.909Z,15.43
2017-02-20T08:35:30.698Z,15.44
2017-02-20T08:36:40.511Z,15.43
2017-02-20T08:37:50.728Z,15.41
2017-02-20T08:39:00.481Z,15.35
2017-02-20T08:40:10.290Z,15.32
2017-02-20T08:41:20.047Z,15.28
2017-02-20T08:42:29.813Z,15.27
2017-02-20T08:43:39.574Z,15.28
2017-02-20T08:44:49.339Z,15.31
2017-02-20T08:45:58.716Z,15.36
2017-02-20T08:47:08.494Z,15.32
2017-02-20T08:48:18.266Z,15.34
2017-02-20T08:49:28.028Z,15.31
2017-02-20T08:50:37.797Z,15.25
2017-02-20T08:51:48.047Z,15.31
2017-02-20T08:52:57.803Z,15.29
2017-02-20T08:54:07.559Z,15.27
2017-02-20T08:55:17.329Z,15.28
2017-02-20T08:56:27.103Z,15.32
2017-02-20T08:57:37.372Z,15.25
2017-02-20T08:58:47.129Z,15.29
2017-02-20T08:59:57.363Z,15.31
2017-02-20T09:01:07.180Z,15.32
2017-02-20T09:02:16.969Z,15.27
2017-02-20T09:03:27.242Z,15.21
2017-02-20T09:04:37.015Z,15.28
2017-02-20T09:05:46.776Z,15.27
2017-02-20T09:06:56.544Z,15.29
2017-02-20T09:08:06.735Z,15.27
2017-02-20T09:09:16.562Z,15.19
2017-02-20T09:10:26.768Z,15.2
2017-02-20T09:11:36.982Z,15.25
2017-02-20T09:12:46.759Z,15.28
2017-02-20T09:13:56.515Z,15.27
2017-02-20T09:15:06.789Z,15.23
2017-02-20T09:16:16.557Z,15.28
2017-02-20T09:17:26.764Z,15.27
2017-02-20T09:18:36.552Z,15.17
2017-02-20T09:19:46.771Z,15.28
2017-02-20T09:20:56.735Z,15.27
2017-02-20T09:22:06.939Z,15.28
2017-02-20T09:23:16.712Z,15.28
2017-02-20T09:24:26.475Z,15.32
2017-02-20T09:25:36.705Z,15.21
2017-02-20T09:26:46.661Z,15.28
2017-02-20T09:27:56.435Z,15.35
2017-02-20T09:29:06.623Z,15.31
2017-02-20T09:30:17.273Z,15.31
2017-02-20T09:31:27.047Z,15.25
2017-02-20T09:32:36.872Z,15.29
2017-02-20T09:33:47.073Z,15.28
2017-02-20T09:34:56.840Z,15.31
2017-02-20T09:36:06.620Z,15.31
2017-02-20T09:37:16.386Z,15.35
2017-02-20T09:38:26.254Z,15.29
2017-02-20T09:39:36.046Z,15.35
2017-02-20T09:40:45.816Z,15.34
2017-02-20T09:41:55.577Z,15.36
2017-02-20T09:43:05.346Z,15.44
2017-02-20T09:44:15.632Z,15.39
2017-02-20T09:45:25.397Z,15.43
2017-02-20T09:46:35.174Z,15.44
2017-02-20T09:47:44.947Z,15.56
2017-02-20T09:48:54.708Z,15.56
2017-02-20T09:50:04.542Z,15.5
2017-02-20T09:51:14.289Z,15.51
2017-02-20T09:52:24.081Z,15.51
2017-02-20T09:53:33.868Z,15.51
2017-02-20T09:54:44.518Z,15.6
2017-02-20T09:55:54.336Z,15.62
2017-02-20T09:57:04.527Z,15.62
2017-02-20T09:58:15.173Z,15.65
2017-02-20T09:59:25.379Z,15.6
2017-02-20T10:00:35.575Z,15.64
2017-02-20T10:01:45.821Z,15.68
2017-02-20T10:02:56.465Z,15.59
2017-02-20T10:04:07.114Z,15.6
2017-02-20T10:05:16.920Z,15.69
2017-02-20T10:06:26.714Z,15.65
2017-02-20T10:07:36.532Z,15.62
2017-02-20T10:08:45.848Z,15.67
2017-02-20T10:09:55.173Z,15.67
2017-02-20T10:11:05.819Z,15.64
2017-02-20T10:12:15.584Z,15.64
2017-02-20T10:13:25.416Z,15.64
2017-02-20T10:14:35.190Z,15.67
2017-02-20T10:15:45.003Z,15.65
2017-02-20T10:16:55.236Z,15.65
2017-02-20T10:18:05.492Z,15.64
2017-02-20T10:19:14.870Z,15.64
2017-02-20T10:20:25.523Z,15.65
2017-02-20T10:21:35.739Z,15.64
2017-02-20T10:22:45.933Z,15.64
2017-02-20T10:23:56.137Z,15.67
2017-02-20T10:25:06.404Z,15.69
2017-02-20T10:26:16.165Z,15.62
2017-02-20T10:27:25.926Z,15.65
2017-02-20T10:28:35.709Z,15.62
2017-02-20T10:29:45.488Z,15.6
2017-02-20T10:30:55.313Z,15.6
2017-02-20T10:32:05.535Z,15.67
2017-02-20T10:33:15.340Z,15.57
2017-02-20T10:34:25.565Z,15.57
2017-02-20T10:35:35.342Z,15.62
2017-02-20T10:36:45.184Z,15.65
2017-02-20T10:37:54.961Z,15.51
2017-02-20T10:39:04.722Z,15.57
2017-02-20T10:40:14.057Z,15.64
2017-02-20T10:41:25.132Z,15.57
2017-02-20T10:42:34.953Z,15.59
2017-02-20T10:43:44.715Z,15.59
2017-02-20T10:44:54.924Z,15.56
2017-02-20T10:46:05.119Z,15.47
2017-02-20T10:47:15.314Z,15.59
2017-02-20T10:48:25.131Z,15.6
2017-02-20T10:49:34.924Z,15.59
2017-02-20T10:50:44.690Z,15.54
2017-02-20T10:51:54.447Z,15.57
2017-02-20T10:53:04.648Z,15.54
2017-02-20T10:54:15.350Z,15.57
2017-02-20T10:55:24.661Z,15.53
2017-02-20T10:56:35.763Z,15.53
2017-02-20T10:57:45.521Z,15.53
2017-02-20T10:58:55.298Z,15.57
2017-02-20T11:00:05.222Z,15.54
2017-02-20T11:01:15.448Z,15.53
2017-02-20T11:02:24.809Z,15.51
2017-02-20T11:03:35.055Z,15.59
2017-02-20T11:04:44.828Z,15.6
2017-02-20T11:05:54.638Z,15.49
2017-02-20T11:07:04.421Z,15.57
2017-02-20T11:08:14.632Z,15.54
2017-02-20T11:09:24.385Z,15.64
2017-02-20T11:10:34.155Z,15.62
2017-02-20T11:11:43.962Z,15.49
2017-02-20T11:12:54.179Z,15.67
2017-02-20T11:14:04.377Z,15.64
2017-02-20T11:15:13.693Z,15.64
2017-02-20T11:16:23.010Z,15.67
2017-02-20T11:17:33.707Z,15.65
2017-02-20T11:18:44.361Z,15.64
2017-02-20T11:19:54.564Z,15.67
2017-02-20T11:21:04.759Z,15.71
2017-02-20T11:22:15.426Z,15.62
2017-02-20T11:23:25.227Z,15.69
2017-02-20T11:24:35.448Z,15.65
2017-02-20T11:25:44.767Z,15.65
2017-02-20T11:26:54.099Z,15.68
2017-02-20T11:28:03.876Z,15.69
2017-02-20T11:29:13.701Z,15.69
2017-02-20T11:30:23.466Z,15.67
2017-02-20T11:31:33.672Z,15.71
2017-02-20T11:32:42.985Z,15.69
2017-02-20T11:33:52.750Z,15.71
2017-02-20T11:35:02.555Z,15.72
2017-02-20T11:36:12.339Z,15.74
2017-02-20T11:37:22.976Z,15.78
2017-02-20T11:38:33.179Z,15.72
2017-02-20T11:39:42.952Z,15.72
2017-02-20T11:40:52.768Z,15.75
2017-02-20T11:42:02.540Z,15.71
2017-02-20T11:43:12.319Z,15.71
2017-02-20T11:44:22.079Z,15.69
2017-02-20T11:45:32.278Z,15.69
2017-02-20T11:46:43.171Z,15.74
2017-02-20T11:47:52.935Z,15.76
2017-02-20T11:49:03.134Z,15.72
2017-02-20T11:50:12.474Z,15.71
2017-02-20T11:51:22.704Z,15.74
2017-02-20T11:52:32.513Z,15.8
2017-02-20T11:53:42.286Z,15.78
2017-02-20T11:54:52.485Z,15.8
2017-02-20T11:56:02.716Z,15.78
2017-02-20T11:57:12.508Z,15.8
2017-02-20T11:58:22.323Z,15.75
2017-02-20T11:59:32.092Z,15.74
2017-02-20T12:00:42.336Z,15.72
2017-02-20T12:01:52.566Z,15.75
2017-02-20T12:03:01.895Z,15.76
2017-02-20T12:04:12.140Z,15.71
2017-02-20T12:05:21.904Z,15.72
2017-02-20T12:06:32.099Z,15.72
2017-02-20T12:07:41.874Z,15.71
2017-02-20T12:08:52.101Z,15.72
2017-02-20T12:10:02.347Z,15.71
2017-02-20T12:11:12.107Z,15.72
2017-02-20T12:12:21.879Z,15.69
2017-02-20T12:13:32.529Z,15.69
2017-02-20T12:14:42.298Z,15.67
2017-02-20T12:15:51.676Z,15.69
2017-02-20T12:17:01.461Z,15.74
2017-02-20T12:18:11.684Z,15.72
2017-02-20T12:19:21.495Z,15.74
2017-02-20T12:20:31.721Z,15.69
2017-02-20T12:21:41.090Z,15.71
2017-02-20T12:22:50.847Z,15.75
2017-02-20T12:24:00.176Z,15.71
2017-02-20T12:25:09.932Z,15.72
2017-02-20T12:26:20.119Z,15.67
2017-02-20T12:27:29.520Z,15.67
2017-02-20T12:28:39.278Z,15.68
2017-02-20T12:29:49.073Z,15.67
2017-02-20T12:30:59.288Z,15.65
2017-02-20T12:32:09.061Z,15.69
2017-02-20T12:33:18.862Z,15.68
2017-02-20T12:34:28.655Z,15.65
2017-02-20T12:35:38.875Z,15.65
2017-02-20T12:36:48.634Z,15.68
2017-02-20T12:37:58.415Z,15.67
2017-02-20T12:39:08.236Z,15.68
2017-02-20T12:40:18.009Z,15.68
2017-02-20T12:41:27.771Z,15.69
2017-02-20T12:42:37.539Z,15.68
2017-02-20T12:43:46.882Z,15.68
2017-02-20T12:44:57.582Z,15.65
2017-02-20T12:46:07.783Z,15.62
2017-02-20T12:47:17.540Z,15.67
2017-02-20T12:48:27.294Z,15.62
2017-02-20T12:49:37.087Z,15.67
2017-02-20T12:50:46.907Z,15.65
2017-02-20T12:51:56.669Z,15.62
2017-02-20T12:53:06.426Z,15.65
2017-02-20T12:54:16.179Z,15.65
2017-02-20T12:55:25.952Z,15.67
2017-02-20T12:56:35.762Z,15.62
2017-02-20T12:57:45.547Z,15.68
2017-02-20T12:58:55.777Z,15.67
2017-02-20T13:00:05.530Z,15.68
2017-02-20T13:01:14.854Z,15.72
2017-02-20T13:02:24.775Z,15.71
2017-02-20T13:03:34.545Z,15.71
2017-02-20T13:04:44.310Z,15.74
2017-02-20T13:05:54.506Z,15.74
2017-02-20T13:07:04.300Z,15.69
2017-02-20T13:08:14.721Z,15.65
2017-02-20T13:09:24.474Z,15.67
2017-02-20T13:10:33.802Z,15.67
2017-02-20T13:11:44.009Z,15.65
2017-02-20T13:12:54.673Z,15.64
2017-02-20T13:14:05.384Z,15.67
2017-02-20T13:15:15.140Z,15.65
2017-02-20T13:16:25.352Z,15.62
2017-02-20T13:17:35.127Z,15.54
2017-02-20T13:18:45.331Z,15.54
2017-02-20T13:19:56.041Z,15.51
2017-02-20T13:21:05.831Z,15.56
2017-02-20T13:22:15.592Z,15.56
2017-02-20T13:23:25.369Z,15.59
2017-02-20T13:24:35.139Z,15.56
2017-02-20T13:25:44.518Z,15.54
2017-02-20T13:26:54.276Z,15.39
2017-02-20T13:28:03.625Z,15.53
2017-02-20T13:29:12.929Z,15.46
2017-02-20T13:30:23.156Z,15.54
2017-02-20T13:31:32.533Z,15.51
2017-02-20T13:32:41.890Z,15.49
2017-02-20T13:33:51.686Z,15.51
2017-02-20T13:35:01.448Z,15.49
2017-02-20T13:36:10.782Z,15.51
2017-02-20T13:37:20.160Z,15.56
2017-02-20T13:38:30.368Z,15.56
2017-02-20T13:39:39.697Z,15.49
2017-02-20T13:40:49.020Z,15.54
2017-02-20T13:41:58.847Z,15.53
2017-02-20T13:43:08.257Z,15.54
2017-02-20T13:44:17.576Z,15.54
2017-02-20T13:45:26.915Z,15.53
2017-02-20T13:46:36.239Z,15.53
2017-02-20T13:47:46.887Z,15.56
2017-02-20T13:48:56.264Z,15.56
2017-02-20T13:50:05.582Z,15.53
2017-02-20T13:51:14.929Z,15.51
2017-02-20T13:52:24.250Z,15.56
2017-02-20T13:53:34.043Z,15.56
2017-02-20T13:54:43.404Z,15.49
2017-02-20T13:55:53.181Z,15.49
2017-02-20T13:57:02.934Z,15.41
2017-02-20T13:58:12.699Z,15.41
2017-02-20T13:59:22.027Z,15.46
2017-02-20T14:00:31.418Z,15.46
2017-02-20T14:01:40.742Z,15.47
2017-02-20T14:02:50.500Z,15.44
2017-02-20T14:03:59.831Z,15.36
2017-02-20T14:05:10.043Z,15.41
2017-02-20T14:06:19.420Z,15.39
2017-02-20T14:07:29.176Z,15.43
2017-02-20T14:08:38.503Z,15.41
2017-02-20T14:09:47.847Z,15.43
2017-02-20T14:10:57.613Z,15.46
2017-02-20T14:12:06.974Z,15.46
2017-02-20T14:13:17.170Z,15.39
2017-02-20T14:14:26.503Z,15.43
2017-02-20T14:15:36.257Z,15.38
2017-02-20T14:16:45.578Z,15.29
2017-02-20T14:17:54.950Z,15.31
2017-02-20T14:19:04.709Z,15.28
2017-02-20T14:20:14.035Z,15.35
2017-02-20T14:21:23.351Z,15.23
2017-02-20T14:22:32.684Z,15.27
2017-02-20T14:23:42.062Z,15.32
2017-02-20T14:24:52.271Z,15.31
2017-02-20T14:26:02.040Z,15.29
2017-02-20T14:27:11.817Z,15.34
2017-02-20T14:28:21.130Z,15.34
2017-02-20T14:29:31.395Z,15.32
2017-02-20T14:30:41.615Z,15.35
2017-02-20T14:31:51.394Z,15.31
2017-02-20T14:33:01.162Z,15.29
2017-02-20T14:34:10.923Z,15.29
2017-02-20T14:35:21.178Z,15.31
2017-02-20T14:36:30.933Z,15.32
2017-02-20T14:37:40.690Z,15.29
2017-02-20T14:38:51.345Z,15.27
2017-02-20T14:40:01.097Z,15.31
2017-02-20T14:41:10.615Z,15.32
2017-02-20T14:42:20.413Z,15.34
2017-02-20T14:43:29.718Z,15.32
2017-02-20T14:44:39.027Z,15.34
2017-02-20T14:45:48.335Z,15.29
2017-02-20T14:46:57.687Z,15.21
2017-02-20T14:48:07.002Z,15.28
2017-02-20T14:49:16.326Z,15.2
2017-02-20T14:50:26.571Z,15.25
2017-02-20T14:51:36.773Z,15.19
2017-02-20T14:52:46.286Z,15.28
2017-02-20T14:53:56.060Z,15.28
2017-02-20T14:55:05.389Z,15.34
2017-02-20T14:56:15.146Z,15.25
2017-02-20T14:57:24.467Z,15.27
2017-02-20T14:58:33.851Z,15.32
2017-02-20T14:59:44.490Z,15.29
2017-02-20T15:00:54.239Z,15.38
2017-02-20T15:02:03.608Z,15.43